Lufkin, Texas
Current Conditions -  °F | °C
As of 12:53 AM on Friday 28 Nov 2014 (Local Time) from KLFK Reporting Station
Clear Clear  
Wind Chill: 40°   Ceiling: Unl
Heat Index: 40°   Visibility: 10mi
Dew Point: 34°   Wind: 3mph
Humidity: 79%   Direction: 110°ESE
Pressure: 30.4"   Gusts: NA
Location:  31.34°N, 94.72°W
Report Text: KLFK 280653Z AUTO 11003KT 10SM CLR 04/01 A3040 RMK AO2 SLP292 T00440011 $
Loading
Personal Weather Stations






























Interactive Weather Map New forecast layout! Learn more

10-Day Weather Forecast

Advertisements
Track Severe Weather on mobile